Time;durP1;ratioP1;P1;durP2;ratioP2;P2;SDS_P1;SDS_P2;PMS_P1;PMS_P2;Temp;Humidity;BMP_temperature;BMP_pressure;BME280_temperature;BME280_humidity;BME280_pressure;Samples;Min_cycle;Max_cycle;Signal;HPM_P1;HPM_P2
2022/07/13 00:01:10;;;;;;;2.58;0.85;;;;;;;13.51;62.58;99966.34;1760172;79;20940;-73
2022/07/13 00:03:37;;;;;;;2.45;0.90;;;;;;;13.49;62.67;99968.77;1759487;79;21014;-72
2022/07/13 00:06:04;;;;;;;1.35;1.00;;;;;;;13.47;62.73;99972.91;1759939;79;21928;-72
2022/07/13 00:08:30;;;;;;;3.25;0.80;;;;;;;13.46;62.75;99966.77;1760022;79;20911;-73
2022/07/13 00:10:59;;;;;;;1.40;0.80;;;;;;;13.46;62.86;99964.61;1760020;79;21418;-71
2022/07/13 00:13:26;;;;;;;2.80;0.80;;;;;;;13.45;62.90;99961.62;1751079;79;20950;-73
2022/07/13 00:15:53;;;;;;;3.05;0.95;;;;;;;13.44;62.93;99956.80;1752242;80;20978;-71
2022/07/13 00:18:19;;;;;;;1.35;0.80;;;;;;;13.43;63.00;99959.61;1757353;79;21899;-73
2022/07/13 00:20:47;;;;;;;0.98;0.90;;;;;;;13.41;63.04;99954.46;1762079;79;20973;-73
2022/07/13 00:23:13;;;;;;;2.58;0.80;;;;;;;13.40;63.18;99954.09;1757339;79;21507;-73
2022/07/13 00:25:39;;;;;;;1.72;1.00;;;;;;;13.39;63.21;99956.41;1758936;80;20923;-73
2022/07/13 00:28:06;;;;;;;2.27;1.00;;;;;;;13.39;63.25;99951.10;1762027;79;20991;-73
2022/07/13 00:30:32;;;;;;;1.65;0.75;;;;;;;13.39;63.26;99944.97;1753778;79;21853;-72
2022/07/13 00:32:59;;;;;;;1.60;0.70;;;;;;;13.39;63.30;99946.29;1724362;81;20937;-72
2022/07/13 00:35:26;;;;;;;3.15;1.00;;;;;;;13.36;63.37;99950.58;1725899;81;21018;-72
2022/07/13 00:37:52;;;;;;;1.92;0.85;;;;;;;13.33;63.39;99951.72;1728165;80;21031;-73
2022/07/13 00:40:19;;;;;;;15.45;0.98;;;;;;;13.32;63.48;99955.36;1723573;81;21126;-72
2022/07/13 00:42:45;;;;;;;2.40;1.00;;;;;;;13.31;63.46;99947.03;1725814;81;22517;-73
2022/07/13 00:45:12;;;;;;;2.90;0.80;;;;;;;13.28;63.58;99943.36;1724931;81;21411;-72
2022/07/13 00:47:38;;;;;;;3.05;0.90;;;;;;;13.26;63.68;99938.70;1719063;82;21125;-73
2022/07/13 00:50:07;;;;;;;3.02;0.88;;;;;;;13.25;63.77;99930.91;1696513;83;21477;-71
2022/07/13 00:52:35;;;;;;;1.87;0.93;;;;;;;13.23;63.86;99932.39;1697093;83;21027;-73
2022/07/13 00:55:03;;;;;;;2.65;1.05;;;;;;;13.22;63.98;99923.23;1718306;81;21948;-72
2022/07/13 00:57:29;;;;;;;2.17;0.95;;;;;;;13.21;64.06;99921.56;1713116;82;21098;-73
2022/07/13 00:59:56;;;;;;;3.35;0.93;;;;;;;13.20;64.11;99919.89;1677388;83;21020;-72
2022/07/13 01:02:22;;;;;;;1.98;1.00;;;;;;;13.19;64.19;99913.77;1718805;83;21410;-73
2022/07/13 01:04:49;;;;;;;2.70;1.05;;;;;;;13.18;64.22;99912.06;1718468;82;20976;-73
2022/07/13 01:07:15;;;;;;;1.75;0.75;;;;;;;13.18;64.26;99920.85;1725455;81;22266;-72
2022/07/13 01:09:42;;;;;;;2.45;1.10;;;;;;;13.17;64.32;99916.53;1716950;81;21008;-72
2022/07/13 01:12:11;;;;;;;1.52;1.00;;;;;;;13.15;64.35;99911.88;1728161;81;21003;-72
2022/07/13 01:14:39;;;;;;;1.70;0.90;;;;;;;13.14;64.41;99920.82;1725909;81;21107;-71
2022/07/13 01:17:06;;;;;;;1.87;1.10;;;;;;;13.11;64.52;99915.80;1699494;83;21085;-72
2022/07/13 01:19:34;;;;;;;2.55;1.00;;;;;;;13.08;64.60;99910.80;1727286;81;22028;-73
2022/07/13 01:22:02;;;;;;;1.67;1.10;;;;;;;13.07;64.69;99916.25;1725304;81;21130;-73
2022/07/13 01:24:29;;;;;;;4.80;0.95;;;;;;;13.02;64.78;99910.05;1716944;81;20964;-74
2022/07/13 01:26:56;;;;;;;1.67;1.20;;;;;;;12.99;64.89;99914.34;1725518;81;21450;-73
2022/07/13 01:29:23;;;;;;;3.40;1.10;;;;;;;12.95;65.01;99907.68;1726482;81;21437;-72
2022/07/13 01:31:49;;;;;;;3.40;1.30;;;;;;;12.90;65.13;99909.44;1741439;80;22802;-73
2022/07/13 01:34:17;;;;;;;4.62;1.30;;;;;;;12.86;65.28;99905.91;1765352;80;20980;-73
2022/07/13 01:36:46;;;;;;;1.98;1.00;;;;;;;12.82;65.42;99904.52;1778411;80;21442;-73
2022/07/13 01:39:13;;;;;;;3.17;1.15;;;;;;;12.80;65.54;99901.20;1751787;80;21425;-73
2022/07/13 01:41:39;;;;;;;5.97;1.20;;;;;;;12.80;65.63;99898.05;1774452;80;21438;-73
2022/07/13 01:44:06;;;;;;;1.95;0.90;;;;;;;12.80;65.67;99887.94;1768840;80;21916;-73
2022/07/13 01:46:33;;;;;;;4.03;1.22;;;;;;;12.80;65.71;99894.08;1759703;80;21035;-73
2022/07/13 01:48:59;;;;;;;1.55;1.10;;;;;;;12.80;65.80;99889.27;1770140;80;20916;-72
2022/07/13 01:51:26;;;;;;;3.15;1.32;;;;;;;12.80;65.80;99890.09;1769595;79;20995;-73
2022/07/13 01:53:53;;;;;;;1.72;1.00;;;;;;;12.83;65.80;99884.98;1760629;80;20999;-73
2022/07/13 01:56:20;;;;;;;1.80;0.93;;;;;;;12.85;65.79;99885.70;1738778;81;21917;-73
2022/07/13 01:58:47;;;;;;;3.30;1.20;;;;;;;12.86;65.74;99881.56;1757793;80;21002;-72
2022/07/13 02:01:14;;;;;;;1.50;1.00;;;;;;;12.88;65.71;99874.79;1742402;81;21015;-73
2022/07/13 02:03:41;;;;;;;3.17;1.30;;;;;;;12.90;65.68;99872.81;1768672;80;20956;-73
2022/07/13 02:06:10;;;;;;;2.35;1.00;;;;;;;12.91;65.65;99869.18;1717315;81;20959;-73
2022/07/13 02:08:37;;;;;;;1.67;1.20;;;;;;;12.92;65.65;99869.52;1766012;80;21891;-73
2022/07/13 02:11:06;;;;;;;1.72;0.90;;;;;;;12.90;65.62;99878.12;1767664;80;20983;-73
2022/07/13 02:13:32;;;;;;;2.40;0.80;;;;;;;12.91;65.61;99873.16;1772895;80;20944;-73
2022/07/13 02:15:59;;;;;;;2.02;1.10;;;;;;;12.91;65.59;99878.45;1758852;80;20952;-74
2022/07/13 02:18:26;;;;;;;2.67;1.00;;;;;;;12.88;65.63;99879.59;1746642;81;20987;-72
2022/07/13 02:20:54;;;;;;;4.65;1.15;;;;;;;12.87;65.66;99876.61;1760385;80;21902;-72
2022/07/13 02:23:21;;;;;;;2.83;1.20;;;;;;;12.85;65.69;99875.09;1750734;80;20970;-71
2022/07/13 02:25:49;;;;;;;2.50;0.90;;;;;;;12.82;65.78;99868.74;1751229;81;21378;-71
2022/07/13 02:28:15;;;;;;;1.70;1.10;;;;;;;12.80;65.85;99870.72;1756868;80;21477;-73
2022/07/13 02:30:42;;;;;;;1.45;1.00;;;;;;;12.78;65.89;99872.20;1756472;80;22352;-73
2022/07/13 02:33:09;;;;;;;1.75;1.12;;;;;;;12.78;66.01;99875.34;1775125;79;22521;-72
2022/07/13 02:35:37;;;;;;;2.90;1.20;;;;;;;12.75;66.06;99867.69;1764124;80;20986;-72
2022/07/13 02:38:04;;;;;;;3.55;1.00;;;;;;;12.76;66.12;99873.33;1759559;81;21058;-73
2022/07/13 02:40:32;;;;;;;4.17;1.10;;;;;;;12.75;66.20;99870.34;1765230;80;20988;-74
2022/07/13 02:42:58;;;;;;;5.58;1.20;;;;;;;12.76;66.26;99866.22;1757743;81;21007;-73
2022/07/13 02:45:25;;;;;;;1.60;1.25;;;;;;;12.78;66.29;99872.69;1742280;82;21855;-73
2022/07/13 02:47:51;;;;;;;3.70;1.10;;;;;;;12.79;66.32;99870.38;1758353;81;21412;-73
2022/07/13 02:50:18;;;;;;;3.52;1.30;;;;;;;12.81;66.35;99865.27;1759951;80;21001;-73
2022/07/13 02:52:45;;;;;;;4.17;1.20;;;;;;;12.86;66.36;99859.53;1751610;80;21524;-74
2022/07/13 02:55:11;;;;;;;1.77;1.12;;;;;;;12.90;66.34;99854.27;1756251;81;20954;-73
2022/07/13 02:57:38;;;;;;;1.27;1.10;;;;;;;12.94;66.32;99853.00;1758506;80;22547;-73
2022/07/13 03:00:08;;;;;;;3.33;1.10;;;;;;;13.00;66.25;99855.03;1763567;80;20903;-73
2022/07/13 03:02:35;;;;;;;1.92;1.00;;;;;;;13.05;66.19;99851.45;1761120;81;21074;-75
2022/07/13 03:05:02;;;;;;;3.50;1.27;;;;;;;13.09;66.09;99851.48;1760863;79;21129;-72
2022/07/13 03:07:29;;;;;;;2.30;1.10;;;;;;;13.13;66.05;99842.26;1761043;80;20914;-73
2022/07/13 03:09:57;;;;;;;3.65;1.20;;;;;;;13.17;65.99;99834.33;1760112;81;21827;-74
2022/07/13 03:12:26;;;;;;;5.37;1.30;;;;;;;13.23;65.95;99834.75;1760724;80;21064;-73
2022/07/13 03:14:53;;;;;;;6.78;1.40;;;;;;;13.27;65.89;99834.78;1769437;81;20977;-72
2022/07/13 03:17:19;;;;;;;3.02;1.30;;;;;;;13.31;65.85;99836.95;1768851;80;20970;-72
2022/07/13 03:19:46;;;;;;;5.00;1.32;;;;;;;13.34;65.80;99838.00;1758830;80;20999;-73
2022/07/13 03:22:14;;;;;;;4.33;1.17;;;;;;;13.39;65.80;99833.55;1757711;80;22294;-73
2022/07/13 03:24:40;;;;;;;4.65;1.32;;;;;;;13.44;65.77;99836.59;1762040;80;20968;-74
2022/07/13 03:27:07;;;;;;;4.00;1.00;;;;;;;13.49;65.76;99830.81;1763288;80;21553;-74
2022/07/13 03:29:33;;;;;;;3.10;1.07;;;;;;;13.55;65.65;99836.84;1761709;81;20924;-73
2022/07/13 03:32:01;;;;;;;2.90;1.20;;;;;;;13.60;65.52;99842.50;1781501;79;21339;-72
2022/07/13 03:34:28;;;;;;;3.33;1.42;;;;;;;13.64;65.46;99843.39;1771832;80;21932;-73
2022/07/13 03:36:56;;;;;;;1.50;1.10;;;;;;;13.69;65.44;99833.62;1772549;80;20968;-74
2022/07/13 03:39:23;;;;;;;2.12;1.22;;;;;;;13.72;65.46;99832.00;1750874;80;20976;-73
2022/07/13 03:41:51;;;;;;;3.40;1.12;;;;;;;13.78;65.52;99825.22;1771165;80;20948;-72
2022/07/13 03:44:18;;;;;;;1.67;1.20;;;;;;;13.83;65.52;99832.23;1746678;80;21043;-72
2022/07/13 03:46:45;;;;;;;3.83;1.15;;;;;;;13.89;65.43;99828.94;1748684;80;21891;-72
2022/07/13 03:49:12;;;;;;;3.47;1.50;;;;;;;13.95;65.32;99823.02;1748842;80;21010;-73
2022/07/13 03:51:41;;;;;;;2.33;1.30;;;;;;;14.04;65.26;99823.41;1754439;80;20955;-73
2022/07/13 03:54:07;;;;;;;4.83;1.25;;;;;;;14.13;65.15;99825.11;1688887;82;21169;-73
2022/07/13 03:56:35;;;;;;;2.45;1.20;;;;;;;14.20;64.84;99820.84;1694571;82;21483;-72
2022/07/13 03:59:02;;;;;;;3.35;1.10;;;;;;;14.30;64.67;99817.57;1684688;83;22381;-72
2022/07/13 04:01:29;;;;;;;2.20;1.17;;;;;;;14.40;64.42;99816.62;1653285;84;21399;-71
2022/07/13 04:03:56;;;;;;;6.45;1.27;;;;;;;14.50;64.22;99823.49;1715724;81;21005;-71
2022/07/13 04:06:25;;;;;;;2.33;1.10;;;;;;;14.60;63.95;99828.68;1720344;81;21067;-72
2022/07/13 04:08:52;;;;;;;3.15;1.40;;;;;;;14.71;63.67;99825.72;1719115;82;21581;-72
2022/07/13 04:11:19;;;;;;;5.30;1.40;;;;;;;14.83;63.44;99832.89;1761527;80;21903;-71
2022/07/13 04:13:45;;;;;;;3.08;1.27;;;;;;;14.93;62.96;99827.43;1745458;81;21004;-72
2022/07/13 04:16:13;;;;;;;4.87;1.07;;;;;;;15.03;62.88;99827.61;1746328;80;21058;-71
2022/07/13 04:18:40;;;;;;;5.05;1.20;;;;;;;15.14;62.62;99831.28;1736531;80;20960;-72
2022/07/13 04:21:07;;;;;;;2.65;1.40;;;;;;;15.24;62.15;99830.30;1747894;80;21007;-73
2022/07/13 04:23:34;;;;;;;1.67;1.10;;;;;;;15.35;62.04;99822.02;1748968;80;21844;-71
2022/07/13 04:26:00;;;;;;;2.85;1.30;;;;;;;15.45;62.01;99823.51;1747740;80;22371;-71
2022/07/13 04:28:27;;;;;;;3.17;1.10;;;;;;;15.57;61.92;99815.19;1759722;80;21517;-71
2022/07/13 04:30:54;;;;;;;3.10;1.20;;;;;;;15.67;61.70;99813.20;1770143;80;21078;-72
2022/07/13 04:33:22;;;;;;;4.33;1.25;;;;;;;15.77;61.26;99811.20;1765601;80;20952;-71
2022/07/13 04:35:48;;;;;;;2.27;1.30;;;;;;;15.88;60.99;99813.50;1741041;81;21880;-73
2022/07/13 04:38:15;;;;;;;4.55;1.42;;;;;;;16.00;60.68;99816.63;1736964;81;21028;-72
2022/07/13 04:40:42;;;;;;;2.50;1.10;;;;;;;16.14;60.14;99816.45;1735061;80;20937;-73
2022/07/13 04:43:08;;;;;;;3.35;1.20;;;;;;;16.26;60.02;99805.73;1756404;80;20990;-74
2022/07/13 04:45:36;;;;;;;5.65;1.20;;;;;;;16.41;59.65;99805.86;1761119;81;21082;-73
2022/07/13 04:48:04;;;;;;;2.60;1.22;;;;;;;16.57;59.15;99798.59;1754752;81;22255;-73
2022/07/13 04:50:32;;;;;;;3.30;1.12;;;;;;;16.70;58.58;99796.75;1736030;81;21047;-74
2022/07/13 04:53:00;;;;;;;10.55;1.27;;;;;;;16.85;58.10;99793.64;1748905;81;20932;-75
2022/07/13 04:55:28;;;;;;;3.42;1.00;;;;;;;17.00;57.35;99787.05;1744744;82;20996;-74
2022/07/13 04:57:56;;;;;;;4.10;1.10;;;;;;;17.15;57.24;99796.44;1748326;81;21433;-75
2022/07/13 05:00:23;;;;;;;3.08;1.20;;;;;;;17.31;56.88;99785.64;1746843;80;21948;-73
2022/07/13 05:02:49;;;;;;;1.90;1.00;;;;;;;17.49;56.79;99786.66;1754458;81;20993;-73
2022/07/13 05:05:16;;;;;;;3.05;1.12;;;;;;;17.69;56.13;99785.64;1743428;80;21090;-72
2022/07/13 05:07:42;;;;;;;2.58;1.02;;;;;;;17.86;55.04;99779.16;1756944;80;21045;-74
2022/07/13 05:10:09;;;;;;;2.98;1.00;;;;;;;18.02;55.02;99777.63;1760556;81;20967;-74
2022/07/13 05:12:40;;;;;;;1.42;0.80;;;;;;;18.17;53.97;99776.81;1719205;82;21937;-73
2022/07/13 05:15:09;;;;;;;2.70;0.90;;;;;;;18.30;53.78;99775.63;1763480;80;20976;-72
2022/07/13 05:17:37;;;;;;;2.30;0.70;;;;;;;18.38;53.51;99768.85;1768853;80;21408;-72
2022/07/13 05:20:05;;;;;;;7.05;0.82;;;;;;;18.43;52.85;99773.14;1754359;79;21014;-73
2022/07/13 05:22:34;;;;;;;3.85;0.90;;;;;;;18.44;52.47;99778.81;1757599;79;20957;-72
2022/07/13 05:25:01;;;;;;;2.22;0.90;;;;;;;18.44;52.04;99772.64;1761207;81;21963;-73
2022/07/13 05:27:28;;;;;;;3.90;0.88;;;;;;;18.42;52.21;99776.80;1786817;80;20987;-73
2022/07/13 05:29:55;;;;;;;2.62;1.05;;;;;;;18.42;52.38;99774.64;1765793;78;21020;-73
2022/07/13 05:32:21;;;;;;;1.98;0.70;;;;;;;18.40;52.52;99780.69;1775996;79;20980;-72
2022/07/13 05:34:49;;;;;;;3.08;0.70;;;;;;;18.37;51.24;99778.41;1768203;80;21125;-73
2022/07/13 05:37:17;;;;;;;2.55;0.70;;;;;;;18.35;51.01;99770.57;1765895;80;22293;-72
2022/07/13 05:39:45;;;;;;;1.75;0.60;;;;;;;18.40;51.69;99772.67;1749548;80;21510;-73
2022/07/13 05:42:13;;;;;;;1.77;0.50;;;;;;;18.41;50.73;99775.16;1775255;80;20963;-74
2022/07/13 05:44:40;;;;;;;2.75;0.60;;;;;;;18.45;50.26;99771.62;1748293;80;21045;-74
2022/07/13 05:47:07;;;;;;;3.77;0.70;;;;;;;18.50;50.72;99766.52;1782588;79;21449;-73
2022/07/13 05:49:35;;;;;;;1.60;0.50;;;;;;;18.57;50.90;99773.61;1770296;80;21986;-74
2022/07/13 05:52:02;;;;;;;0.70;0.42;;;;;;;18.65;50.20;99786.59;1760529;80;21030;-75
2022/07/13 05:54:30;;;;;;;0.88;0.40;;;;;;;18.69;49.20;99767.28;1735150;82;20955;-75
2022/07/13 05:56:57;;;;;;;27.27;24.43;;;;;;;18.72;49.31;99764.25;1743268;81;21507;-75
2022/07/13 05:59:23;;;;;;;5.75;4.55;;;;;;;18.76;49.21;99766.86;1746774;80;21100;-77
2022/07/13 06:01:50;;;;;;;6.12;4.72;;;;;;;18.83;49.66;99768.27;1760591;80;21935;-78
2022/07/13 06:04:16;;;;;;;18.67;15.95;;;;;;;18.91;49.84;99769.46;1780389;80;20969;-74
2022/07/13 06:06:43;;;;;;;1.95;0.80;;;;;;;18.98;49.83;99763.67;1773901;80;21030;-74
2022/07/13 06:09:10;;;;;;;3.45;0.80;;;;;;;19.04;49.31;99768.79;1750530;80;21032;-74
2022/07/13 06:11:37;;;;;;;1.12;0.57;;;;;;;19.04;48.91;99773.63;1764825;80;21003;-75
2022/07/13 06:14:04;;;;;;;1.27;0.40;;;;;;;19.01;48.48;99772.69;1748315;80;21913;-73
2022/07/13 06:16:31;;;;;;;1.25;0.60;;;;;;;18.98;48.57;99768.20;1748060;80;20941;-73
2022/07/13 06:19:00;;;;;;;0.70;0.40;;;;;;;18.94;48.66;99769.62;1769495;80;21036;-73
2022/07/13 06:21:28;;;;;;;0.93;0.42;;;;;;;18.87;48.35;99773.55;1747794;80;20995;-72
2022/07/13 06:23:56;;;;;;;6.35;4.60;;;;;;;18.82;48.78;99766.11;1763980;80;21031;-72
2022/07/13 06:26:23;;;;;;;1.37;0.70;;;;;;;18.77;49.21;99767.17;1752251;80;22196;-72
2022/07/13 06:28:50;;;;;;;2.77;0.62;;;;;;;18.75;49.42;99774.56;1759489;80;21039;-72
2022/07/13 06:31:16;;;;;;;0.78;0.53;;;;;;;18.70;49.23;99769.45;1748623;80;22254;-72
2022/07/13 06:33:43;;;;;;;1.22;0.60;;;;;;;18.65;49.43;99788.75;1775976;79;21359;-72
2022/07/13 06:36:09;;;;;;;2.70;0.80;;;;;;;18.57;49.58;99776.28;1795432;79;21387;-72
2022/07/13 06:38:36;;;;;;;1.32;0.70;;;;;;;18.48;49.66;99772.56;1796830;79;21787;-72
2022/07/13 06:41:04;;;;;;;1.65;0.78;;;;;;;18.43;50.00;99777.63;1768057;79;20928;-72
2022/07/13 06:43:32;;;;;;;1.62;0.70;;;;;;;18.38;50.53;99782.22;1797795;79;20950;-72
2022/07/13 06:45:58;;;;;;;1.85;1.00;;;;;;;18.30;50.73;99775.13;1781829;79;21051;-72
2022/07/13 06:48:26;;;;;;;1.15;0.60;;;;;;;18.26;51.34;99777.86;1796632;79;20960;-72
2022/07/13 06:50:52;;;;;;;1.95;0.75;;;;;;;18.23;51.40;99772.86;1769427;79;21827;-72
2022/07/13 06:53:19;;;;;;;0.80;0.60;;;;;;;18.19;51.55;99778.27;1771655;79;21084;-74
2022/07/13 06:55:46;;;;;;;4.10;0.90;;;;;;;18.16;51.67;99773.81;1766101;79;20988;-74
2022/07/13 06:58:12;;;;;;;4.58;0.80;;;;;;;18.13;52.13;99773.66;1768876;79;21420;-77
2022/07/13 07:00:39;;;;;;;2.60;0.70;;;;;;;18.19;52.68;99774.77;1756762;81;21001;-74
2022/07/13 07:03:05;;;;;;;1.45;0.68;;;;;;;18.23;53.22;99770.19;1764186;79;21921;-73
2022/07/13 07:05:32;;;;;;;4.75;3.17;;;;;;;18.29;53.37;99773.47;1750830;79;20941;-72
2022/07/13 07:08:00;;;;;;;6.25;3.17;;;;;;;18.30;53.02;99772.45;1763688;79;21040;-72
2022/07/13 07:10:27;;;;;;;19.00;16.40;;;;;;;18.33;52.66;99762.39;1787985;79;21424;-73
2022/07/13 07:12:55;;;;;;;2.45;1.62;;;;;;;18.31;51.96;99765.26;1752560;80;21039;-72
2022/07/13 07:15:23;;;;;;;1.37;0.60;;;;;;;18.31;51.80;99764.75;1787198;79;22881;-72
2022/07/13 07:17:50;;;;;;;3.20;0.60;;;;;;;18.32;51.84;99762.90;1760831;79;20929;-72
2022/07/13 07:20:17;;;;;;;1.47;0.60;;;;;;;18.33;52.02;99757.05;1761873;81;21546;-71
2022/07/13 07:22:45;;;;;;;1.20;0.50;;;;;;;18.34;52.42;99757.39;1782681;79;21324;-71
2022/07/13 07:25:13;;;;;;;1.55;0.55;;;;;;;18.36;53.01;99763.38;1775958;79;20958;-73
2022/07/13 07:27:41;;;;;;;1.17;0.68;;;;;;;18.30;52.49;99758.25;1765160;79;21907;-73
2022/07/13 07:30:10;;;;;;;0.80;0.50;;;;;;;18.27;53.93;99753.30;1759196;79;20959;-69
2022/07/13 07:32:39;;;;;;;0.95;0.40;;;;;;;18.24;54.42;99755.01;1764005;80;21341;-71
2022/07/13 07:35:08;;;;;;;1.05;0.50;;;;;;;18.23;54.25;99760.84;1773206;80;21027;-70
2022/07/13 07:37:39;;;;;;;2.67;0.50;;;;;;;18.24;53.90;99755.01;1760856;80;21088;-69
2022/07/13 07:40:07;;;;;;;0.50;0.40;;;;;;;18.26;53.89;99752.47;1761451;80;22283;-74
2022/07/13 07:42:35;;;;;;;1.15;0.65;;;;;;;18.28;54.00;99762.45;1772911;79;21026;-74
2022/07/13 07:45:03;;;;;;;2.42;0.53;;;;;;;18.27;53.95;99754.12;1773819;80;21062;-72
2022/07/13 07:47:31;;;;;;;1.47;0.60;;;;;;;18.28;53.38;99753.61;1762964;79;21070;-71
2022/07/13 07:49:59;;;;;;;3.15;0.75;;;;;;;18.29;53.85;99748.07;1755860;81;21101;-70
2022/07/13 07:52:25;;;;;;;3.10;0.70;;;;;;;18.31;53.56;99746.03;1745556;80;22511;-70
2022/07/13 07:54:52;;;;;;;1.50;0.60;;;;;;;18.34;53.33;99748.03;1764083;79;21009;-73
2022/07/13 07:57:18;;;;;;;2.25;0.80;;;;;;;18.35;53.51;99745.17;1772901;80;21051;-72
2022/07/13 07:59:45;;;;;;;9.88;8.85;;;;;;;18.39;53.58;99750.96;1728506;81;21519;-73
2022/07/13 08:02:13;;;;;;;6.30;5.70;;;;;;;18.43;53.35;99744.20;1746128;80;21089;-73
2022/07/13 08:04:40;;;;;;;2.40;1.30;;;;;;;18.46;53.59;99737.17;1776567;79;22504;-72
2022/07/13 08:07:07;;;;;;;1.02;0.60;;;;;;;18.51;53.31;99736.91;1770975;79;21059;-70
2022/07/13 08:09:35;;;;;;;1.95;0.70;;;;;;;18.54;53.25;99733.05;1773365;79;20983;-71
2022/07/13 08:12:04;;;;;;;1.82;0.60;;;;;;;18.57;52.79;99738.02;1767963;79;21014;-73
2022/07/13 08:14:33;;;;;;;1.75;0.50;;;;;;;18.59;52.91;99737.31;1744550;81;21097;-72
2022/07/13 08:17:00;;;;;;;4.75;0.70;;;;;;;18.58;51.96;99733.80;1768248;79;21820;-72
2022/07/13 08:19:26;;;;;;;4.10;0.70;;;;;;;18.61;52.47;99731.25;1787896;80;21467;-70
2022/07/13 08:21:53;;;;;;;3.98;0.53;;;;;;;18.64;52.75;99738.92;1760009;80;21026;-70
2022/07/13 08:24:20;;;;;;;0.60;0.50;;;;;;;18.69;52.28;99741.05;1734441;81;21603;-71
2022/07/13 08:26:47;;;;;;;1.98;0.80;;;;;;;18.71;52.49;99743.84;1755990;79;21014;-71
2022/07/13 08:29:14;;;;;;;4.53;0.70;;;;;;;18.74;52.68;99749.34;1752975;80;21787;-70
2022/07/13 08:31:41;;;;;;;3.45;0.60;;;;;;;18.72;52.61;99754.89;1760500;80;21931;-72
2022/07/13 08:39:37;;;;;;;0.72;0.60;;;;;;;18.79;52.67;99744.23;1754932;81;21449;-71
2022/07/13 08:42:05;;;;;;;3.72;0.60;;;;;;;18.79;52.48;99739.71;1746637;80;21818;-72
2022/07/13 08:44:31;;;;;;;1.62;0.72;;;;;;;18.81;52.60;99734.17;1736452;81;21019;-72
2022/07/13 08:46:59;;;;;;;1.25;0.60;;;;;;;18.85;53.21;99732.78;1785883;80;21074;-69
2022/07/13 08:49:26;;;;;;;1.70;0.53;;;;;;;18.85;52.94;99751.00;1786573;80;21059;-71
2022/07/13 08:51:53;;;;;;;1.00;0.80;;;;;;;18.86;52.89;99735.77;1779638;80;21033;-72
2022/07/13 08:54:19;;;;;;;0.88;0.60;;;;;;;18.86;53.59;99743.29;1762646;80;21871;-72
2022/07/13 08:56:46;;;;;;;2.72;0.50;;;;;;;18.88;53.80;99730.55;1791780;80;21019;-71
2022/07/13 08:59:13;;;;;;;2.30;0.60;;;;;;;18.86;53.36;99731.25;1781766;79;21518;-71
2022/07/13 09:01:41;;;;;;;1.47;0.90;;;;;;;18.86;53.62;99724.56;1753310;80;21026;-72
2022/07/13 09:04:10;;;;;;;0.65;0.60;;;;;;;18.88;53.48;99723.86;1745013;80;21048;-74
2022/07/13 09:06:48;;;;;;;2.33;0.60;;;;;;;18.95;54.09;99725.27;1774675;80;21887;-72
2022/07/13 09:09:31;;;;;;;1.55;0.60;;;;;;;19.06;53.46;99723.92;1785845;80;20998;-72
2022/07/13 09:12:21;;;;;;;1.22;0.65;;;;;;;19.11;52.88;99736.23;1775412;80;21320;-73
2022/07/13 09:15:01;;;;;;;1.80;0.80;;;;;;;19.15;53.15;99732.13;1766896;80;22077;-72
2022/07/13 09:17:43;;;;;;;1.95;0.75;;;;;;;19.14;53.20;99737.17;1754916;81;21007;-72
2022/07/13 09:20:20;;;;;;;1.98;0.60;;;;;;;19.07;53.38;99737.10;1726279;81;21926;-73
2022/07/13 09:22:58;;;;;;;2.25;0.60;;;;;;;18.96;54.44;99740.30;1745924;80;21537;-72
2022/07/13 09:25:31;;;;;;;1.02;0.60;;;;;;;18.86;55.06;99742.47;1752746;80;21019;-71
2022/07/13 09:28:06;;;;;;;0.95;0.70;;;;;;;18.82;56.27;99745.22;1749354;80;21027;-71
2022/07/13 09:30:34;;;;;;;2.17;0.80;;;;;;;18.72;56.58;99753.55;1727480;82;21600;-72
2022/07/13 09:33:01;;;;;;;1.95;0.70;;;;;;;18.55;57.75;99742.73;1757820;80;21775;-73
2022/07/13 09:35:49;;;;;;;1.15;0.72;;;;;;;18.39;58.30;99755.80;1755343;80;21109;-75
2022/07/13 09:38:34;;;;;;;3.05;0.62;;;;;;;18.23;58.91;99760.84;1754246;80;21086;-73
2022/07/13 09:41:20;;;;;;;1.52;0.75;;;;;;;18.07;59.96;99754.38;1754420;80;21146;-72
2022/07/13 09:46:59;;;;;;;2.37;0.90;;;;;;;17.84;61.72;99781.16;1781224;80;21872;-68
2022/07/13 09:49:41;;;;;;;0.95;0.75;;;;;;;17.66;61.45;99763.28;1752755;80;21503;-69
2022/07/13 09:52:19;;;;;;;0.93;0.70;;;;;;;17.51;61.87;99763.28;1744917;79;21046;-69
2022/07/13 09:54:51;;;;;;;1.25;0.50;;;;;;;17.39;63.03;99756.72;1756007;80;21031;-69
2022/07/13 09:57:17;;;;;;;2.27;0.53;;;;;;;17.29;62.83;99769.50;1757235;81;21030;-68
2022/07/13 09:59:44;;;;;;;0.50;0.50;;;;;;;17.19;63.08;99761.73;1757466;81;22604;-69
2022/07/13 10:02:12;;;;;;;0.65;0.60;;;;;;;17.13;63.50;99767.27;1736080;80;21442;-69
2022/07/13 10:04:39;;;;;;;1.15;0.57;;;;;;;17.07;63.10;99769.30;1747239;80;20988;-69
2022/07/13 10:07:07;;;;;;;0.85;0.70;;;;;;;17.09;63.40;99764.64;1736070;81;21048;-70
2022/07/13 10:09:38;;;;;;;0.98;0.55;;;;;;;17.14;64.05;99764.09;1753419;81;21013;-70
2022/07/13 10:12:10;;;;;;;0.62;0.50;;;;;;;17.17;63.98;99771.22;1747635;80;21881;-68
2022/07/13 10:14:38;;;;;;;0.90;0.57;;;;;;;17.24;63.70;99766.52;1747958;80;21007;-68
2022/07/13 10:17:09;;;;;;;1.12;0.70;;;;;;;17.24;63.07;99776.69;1747737;82;20950;-69
2022/07/13 10:19:44;;;;;;;1.15;0.60;;;;;;;17.28;63.72;99774.00;1747583;81;21030;-69
2022/07/13 10:22:17;;;;;;;1.60;0.68;;;;;;;17.33;63.74;99777.45;1750555;80;21392;-69
2022/07/13 10:24:57;;;;;;;0.90;0.60;;;;;;;17.37;63.40;99772.92;1740989;81;21934;-69
2022/07/13 10:27:30;;;;;;;1.05;0.40;;;;;;;17.37;63.34;99762.72;1751050;81;21009;-69
2022/07/13 10:30:18;;;;;;;1.55;0.62;;;;;;;17.38;63.53;99769.75;1747741;80;21085;-69
2022/07/13 10:32:46;;;;;;;1.15;0.60;;;;;;;17.36;63.88;99753.89;1747547;81;20998;-70
2022/07/13 10:35:16;;;;;;;1.47;0.60;;;;;;;17.37;63.20;99765.39;1752836;81;21018;-70
2022/07/13 10:38:02;;;;;;;1.07;0.60;;;;;;;17.32;63.26;99757.94;1755468;81;21944;-70
2022/07/13 10:40:37;;;;;;;1.52;0.70;;;;;;;17.29;63.56;99752.97;1737767;80;21056;-69
2022/07/13 10:43:11;;;;;;;1.30;0.85;;;;;;;17.25;63.07;99762.33;1738209;81;20951;-70
2022/07/13 10:45:43;;;;;;;2.62;0.60;;;;;;;17.19;63.63;99751.06;1762097;81;21548;-69
2022/07/13 10:48:30;;;;;;;0.93;0.55;;;;;;;17.17;63.40;99735.20;1762331;81;20955;-69
2022/07/13 10:51:02;;;;;;;0.88;0.60;;;;;;;17.14;63.53;99748.91;1762200;81;21823;-70
2022/07/13 10:53:46;;;;;;;0.80;0.50;;;;;;;17.13;63.92;99741.92;1761985;81;20940;-69
2022/07/13 10:56:20;;;;;;;0.77;0.57;;;;;;;17.11;64.06;99754.62;1742461;80;21015;-69
2022/07/13 10:58:49;;;;;;;1.50;0.70;;;;;;;17.04;64.50;99734.98;1732029;82;21008;-70
2022/07/13 11:01:48;;;;;;;1.25;0.75;;;;;;;16.97;64.52;99732.70;1752783;81;21468;-70
2022/07/13 11:04:12;;;;;;;0.95;0.60;;;;;;;16.90;64.88;99730.95;1759995;80;21824;-70
2022/07/13 11:06:40;;;;;;;2.65;1.00;;;;;;;16.87;65.43;99729.44;1761963;81;20931;-69
2022/07/13 11:09:18;;;;;;;2.58;0.80;;;;;;;16.89;65.84;99720.78;1762005;81;21038;-70
2022/07/13 11:11:49;;;;;;;1.47;0.70;;;;;;;16.91;66.02;99713.94;1762243;81;21030;-70
2022/07/13 11:14:41;;;;;;;0.90;0.62;;;;;;;16.95;66.37;99718.72;1761667;81;21516;-70
2022/07/13 11:17:17;;;;;;;1.20;0.70;;;;;;;16.98;66.52;99718.35;1760646;81;22514;-69
2022/07/13 11:19:57;;;;;;;3.12;1.10;;;;;;;17.01;65.96;99718.02;1755181;80;20872;-70
2022/07/13 11:22:27;;;;;;;1.67;0.90;;;;;;;17.01;65.94;99709.18;1758263;80;21009;-69
2022/07/13 11:25:15;;;;;;;1.25;0.90;;;;;;;17.00;66.19;99696.34;1755007;81;20977;-69
2022/07/13 11:27:50;;;;;;;2.72;0.90;;;;;;;17.04;67.08;99702.97;1754807;80;21007;-69
2022/07/13 11:30:17;;;;;;;1.62;0.80;;;;;;;17.08;67.09;99704.77;1731871;82;21813;-69
2022/07/13 11:32:44;;;;;;;1.37;1.00;;;;;;;17.06;67.14;99705.45;1731735;82;21395;-69
2022/07/13 11:35:11;;;;;;;1.27;0.80;;;;;;;17.04;67.61;99704.81;1757877;81;21416;-69
2022/07/13 11:37:38;;;;;;;1.85;0.78;;;;;;;17.01;67.88;99699.84;1773187;81;20976;-69
2022/07/13 11:40:07;;;;;;;2.17;1.00;;;;;;;16.96;68.28;99695.03;1705382;81;20952;-69
2022/07/13 11:42:35;;;;;;;5.30;0.98;;;;;;;16.97;68.99;99701.19;1773371;81;21948;-70
2022/07/13 11:45:01;;;;;;;1.52;0.90;;;;;;;16.94;69.17;99690.89;1773121;79;21056;-69
2022/07/13 11:47:28;;;;;;;6.40;0.93;;;;;;;16.92;69.22;99687.08;1773128;81;21028;-70
2022/07/13 11:49:54;;;;;;;0.80;0.70;;;;;;;16.84;68.72;99686.63;1773183;81;20976;-70